sensor_id;sensor_type;location;lat;lon;timestamp;P1;durP1;ratioP1;P2;durP2;ratioP2
16147;SDS011;8179;59.364;18.018;2023-07-22T00:01:30;1999.90;;;999.90;;
16147;SDS011;8179;59.364;18.018;2023-07-22T00:03:57;1999.90;;;999.90;;
16147;SDS011;8179;59.364;18.018;2023-07-22T00:06:23;1999.90;;;999.90;;
16147;SDS011;8179;59.364;18.018;2023-07-22T00:08:50;1999.90;;;999.90;;
16147;SDS011;8179;59.364;18.018;2023-07-22T00:11:18;1999.90;;;999.90;;
16147;SDS011;8179;59.364;18.018;2023-07-22T00:13:46;1999.90;;;999.90;;
16147;SDS011;8179;59.364;18.018;2023-07-22T00:16:13;1999.90;;;999.90;;
16147;SDS011;8179;59.364;18.018;2023-07-22T00:18:40;1999.90;;;999.90;;
16147;SDS011;8179;59.364;18.018;2023-07-22T00:21:06;1999.90;;;999.90;;
16147;SDS011;8179;59.364;18.018;2023-07-22T00:23:34;1999.90;;;999.90;;
16147;SDS011;8179;59.364;18.018;2023-07-22T00:26:00;1999.90;;;999.90;;
16147;SDS011;8179;59.364;18.018;2023-07-22T00:28:28;1999.90;;;999.90;;
16147;SDS011;8179;59.364;18.018;2023-07-22T00:30:55;1999.90;;;999.90;;
16147;SDS011;8179;59.364;18.018;2023-07-22T00:33:22;1999.90;;;999.90;;
16147;SDS011;8179;59.364;18.018;2023-07-22T00:35:49;1999.90;;;999.90;;
16147;SDS011;8179;59.364;18.018;2023-07-22T00:38:16;1999.90;;;999.90;;
16147;SDS011;8179;59.364;18.018;2023-07-22T00:40:44;1999.90;;;999.90;;
16147;SDS011;8179;59.364;18.018;2023-07-22T00:43:10;1999.90;;;999.90;;
16147;SDS011;8179;59.364;18.018;2023-07-22T00:45:37;1999.90;;;999.90;;
16147;SDS011;8179;59.364;18.018;2023-07-22T00:48:05;1999.90;;;999.90;;
16147;SDS011;8179;59.364;18.018;2023-07-22T00:50:32;1999.90;;;999.90;;
16147;SDS011;8179;59.364;18.018;2023-07-22T00:52:59;1999.90;;;999.90;;
16147;SDS011;8179;59.364;18.018;2023-07-22T00:55:25;1999.90;;;999.90;;
16147;SDS011;8179;59.364;18.018;2023-07-22T00:57:52;1999.90;;;999.90;;
16147;SDS011;8179;59.364;18.018;2023-07-22T01:00:19;1999.90;;;999.90;;
16147;SDS011;8179;59.364;18.018;2023-07-22T01:02:45;1999.90;;;999.90;;
16147;SDS011;8179;59.364;18.018;2023-07-22T01:05:13;1999.90;;;999.90;;
16147;SDS011;8179;59.364;18.018;2023-07-22T01:07:40;1999.90;;;999.90;;
16147;SDS011;8179;59.364;18.018;2023-07-22T01:10:06;1999.90;;;999.90;;
16147;SDS011;8179;59.364;18.018;2023-07-22T01:12:34;1999.90;;;999.90;;
16147;SDS011;8179;59.364;18.018;2023-07-22T01:15:01;1999.90;;;999.90;;
16147;SDS011;8179;59.364;18.018;2023-07-22T01:17:32;1999.90;;;999.90;;
16147;SDS011;8179;59.364;18.018;2023-07-22T01:19:59;1999.90;;;999.90;;
16147;SDS011;8179;59.364;18.018;2023-07-22T01:22:28;1999.90;;;999.90;;
16147;SDS011;8179;59.364;18.018;2023-07-22T01:24:57;1999.90;;;999.90;;
16147;SDS011;8179;59.364;18.018;2023-07-22T01:27:23;1999.90;;;999.90;;
16147;SDS011;8179;59.364;18.018;2023-07-22T01:29:50;1999.90;;;999.90;;
16147;SDS011;8179;59.364;18.018;2023-07-22T01:32:17;1999.90;;;999.90;;
16147;SDS011;8179;59.364;18.018;2023-07-22T01:34:45;1999.90;;;999.90;;
16147;SDS011;8179;59.364;18.018;2023-07-22T01:37:11;1999.90;;;999.90;;
16147;SDS011;8179;59.364;18.018;2023-07-22T01:39:38;1999.90;;;999.90;;
16147;SDS011;8179;59.364;18.018;2023-07-22T01:42:06;1999.90;;;999.90;;
16147;SDS011;8179;59.364;18.018;2023-07-22T01:44:32;1999.90;;;999.90;;
16147;SDS011;8179;59.364;18.018;2023-07-22T01:47:01;1999.90;;;999.90;;
16147;SDS011;8179;59.364;18.018;2023-07-22T01:49:27;1999.90;;;999.90;;
16147;SDS011;8179;59.364;18.018;2023-07-22T01:51:54;1999.90;;;999.90;;
16147;SDS011;8179;59.364;18.018;2023-07-22T01:54:21;1999.90;;;999.90;;
16147;SDS011;8179;59.364;18.018;2023-07-22T01:56:47;1999.90;;;999.90;;
16147;SDS011;8179;59.364;18.018;2023-07-22T01:59:15;1999.90;;;999.90;;
16147;SDS011;8179;59.364;18.018;2023-07-22T02:01:41;1999.90;;;999.90;;
16147;SDS011;8179;59.364;18.018;2023-07-22T02:04:08;1999.90;;;999.90;;
16147;SDS011;8179;59.364;18.018;2023-07-22T02:06:36;1999.90;;;999.90;;
16147;SDS011;8179;59.364;18.018;2023-07-22T02:09:02;1999.90;;;999.90;;
16147;SDS011;8179;59.364;18.018;2023-07-22T02:11:33;1999.90;;;999.90;;
16147;SDS011;8179;59.364;18.018;2023-07-22T02:13:59;1999.90;;;999.90;;
16147;SDS011;8179;59.364;18.018;2023-07-22T02:16:27;1999.90;;;999.90;;
16147;SDS011;8179;59.364;18.018;2023-07-22T02:18:54;1999.90;;;999.90;;
16147;SDS011;8179;59.364;18.018;2023-07-22T02:21:20;1999.90;;;999.90;;
16147;SDS011;8179;59.364;18.018;2023-07-22T02:23:47;1999.90;;;999.90;;
16147;SDS011;8179;59.364;18.018;2023-07-22T02:26:13;1999.90;;;999.90;;
16147;SDS011;8179;59.364;18.018;2023-07-22T02:28:40;1999.90;;;999.90;;
16147;SDS011;8179;59.364;18.018;2023-07-22T02:31:08;1999.90;;;999.90;;
16147;SDS011;8179;59.364;18.018;2023-07-22T02:33:37;1999.90;;;999.90;;
16147;SDS011;8179;59.364;18.018;2023-07-22T02:36:04;1999.90;;;999.90;;
16147;SDS011;8179;59.364;18.018;2023-07-22T02:38:30;1999.90;;;999.90;;
16147;SDS011;8179;59.364;18.018;2023-07-22T02:41:00;1999.90;;;999.90;;
16147;SDS011;8179;59.364;18.018;2023-07-22T02:43:27;1999.90;;;999.90;;
16147;SDS011;8179;59.364;18.018;2023-07-22T02:45:54;1999.90;;;999.90;;
16147;SDS011;8179;59.364;18.018;2023-07-22T02:48:21;1999.90;;;999.90;;
16147;SDS011;8179;59.364;18.018;2023-07-22T02:50:49;1999.90;;;999.90;;
16147;SDS011;8179;59.364;18.018;2023-07-22T02:53:15;1999.90;;;999.90;;
16147;SDS011;8179;59.364;18.018;2023-07-22T02:55:41;1999.90;;;999.90;;
16147;SDS011;8179;59.364;18.018;2023-07-22T02:58:08;1999.90;;;999.90;;
16147;SDS011;8179;59.364;18.018;2023-07-22T03:00:35;1999.90;;;999.90;;
16147;SDS011;8179;59.364;18.018;2023-07-22T03:03:01;1999.90;;;999.90;;
16147;SDS011;8179;59.364;18.018;2023-07-22T03:05:30;1999.90;;;999.90;;
16147;SDS011;8179;59.364;18.018;2023-07-22T03:07:58;1999.90;;;999.90;;
16147;SDS011;8179;59.364;18.018;2023-07-22T03:10:24;1999.90;;;999.90;;
16147;SDS011;8179;59.364;18.018;2023-07-22T03:12:52;1999.90;;;999.90;;
16147;SDS011;8179;59.364;18.018;2023-07-22T03:15:20;1999.90;;;999.90;;
16147;SDS011;8179;59.364;18.018;2023-07-22T03:17:47;1999.90;;;999.90;;
16147;SDS011;8179;59.364;18.018;2023-07-22T03:20:14;1999.90;;;999.90;;
16147;SDS011;8179;59.364;18.018;2023-07-22T03:22:41;1999.90;;;999.90;;
16147;SDS011;8179;59.364;18.018;2023-07-22T03:25:09;1999.90;;;999.90;;
16147;SDS011;8179;59.364;18.018;2023-07-22T03:27:36;1999.90;;;999.90;;
16147;SDS011;8179;59.364;18.018;2023-07-22T03:30:03;1999.90;;;999.90;;
16147;SDS011;8179;59.364;18.018;2023-07-22T03:32:31;1999.90;;;999.90;;
16147;SDS011;8179;59.364;18.018;2023-07-22T03:34:58;1999.90;;;999.90;;
16147;SDS011;8179;59.364;18.018;2023-07-22T03:37:24;1999.90;;;999.90;;
16147;SDS011;8179;59.364;18.018;2023-07-22T03:39:51;1999.90;;;999.90;;
16147;SDS011;8179;59.364;18.018;2023-07-22T03:42:19;1999.90;;;999.90;;
16147;SDS011;8179;59.364;18.018;2023-07-22T03:44:45;1999.90;;;999.90;;
16147;SDS011;8179;59.364;18.018;2023-07-22T03:47:12;1999.90;;;999.90;;
16147;SDS011;8179;59.364;18.018;2023-07-22T03:49:38;1999.90;;;999.90;;
16147;SDS011;8179;59.364;18.018;2023-07-22T03:52:05;1999.90;;;999.90;;
16147;SDS011;8179;59.364;18.018;2023-07-22T03:54:32;1999.90;;;999.90;;
16147;SDS011;8179;59.364;18.018;2023-07-22T03:56:58;1999.90;;;999.90;;
16147;SDS011;8179;59.364;18.018;2023-07-22T03:59:26;1999.90;;;999.90;;
16147;SDS011;8179;59.364;18.018;2023-07-22T04:01:53;1999.90;;;999.90;;
16147;SDS011;8179;59.364;18.018;2023-07-22T04:04:20;1999.90;;;999.90;;
16147;SDS011;8179;59.364;18.018;2023-07-22T04:06:46;1999.90;;;999.90;;
16147;SDS011;8179;59.364;18.018;2023-07-22T04:09:13;1999.90;;;999.90;;
16147;SDS011;8179;59.364;18.018;2023-07-22T04:11:39;1999.90;;;999.90;;
16147;SDS011;8179;59.364;18.018;2023-07-22T04:14:06;1999.90;;;999.90;;
16147;SDS011;8179;59.364;18.018;2023-07-22T04:16:34;1999.90;;;999.90;;
16147;SDS011;8179;59.364;18.018;2023-07-22T04:19:00;1999.90;;;999.90;;
16147;SDS011;8179;59.364;18.018;2023-07-22T04:21:26;1999.90;;;999.90;;
16147;SDS011;8179;59.364;18.018;2023-07-22T04:23:53;1999.90;;;999.90;;
16147;SDS011;8179;59.364;18.018;2023-07-22T04:26:19;1999.90;;;999.90;;
16147;SDS011;8179;59.364;18.018;2023-07-22T04:28:46;1999.90;;;999.90;;
16147;SDS011;8179;59.364;18.018;2023-07-22T04:31:12;1999.90;;;999.90;;
16147;SDS011;8179;59.364;18.018;2023-07-22T04:33:41;1999.90;;;999.90;;
16147;SDS011;8179;59.364;18.018;2023-07-22T04:36:08;752.28;;;494.42;;
16147;SDS011;8179;59.364;18.018;2023-07-22T04:38:34;397.85;;;384.23;;
16147;SDS011;8179;59.364;18.018;2023-07-22T04:41:02;383.30;;;370.70;;
16147;SDS011;8179;59.364;18.018;2023-07-22T04:43:29;391.52;;;378.27;;
16147;SDS011;8179;59.364;18.018;2023-07-22T04:45:56;409.90;;;396.20;;
16147;SDS011;8179;59.364;18.018;2023-07-22T04:48:23;411.02;;;397.15;;
16147;SDS011;8179;59.364;18.018;2023-07-22T04:50:51;393.70;;;380.67;;
16147;SDS011;8179;59.364;18.018;2023-07-22T04:53:17;387.50;;;374.70;;
16147;SDS011;8179;59.364;18.018;2023-07-22T04:55:44;340.55;;;329.52;;
16147;SDS011;8179;59.364;18.018;2023-07-22T04:58:11;389.88;;;376.70;;
16147;SDS011;8179;59.364;18.018;2023-07-22T05:00:37;418.13;;;403.50;;
16147;SDS011;8179;59.364;18.018;2023-07-22T05:03:04;363.75;;;351.80;;
16147;SDS011;8179;59.364;18.018;2023-07-22T05:07:58;388.33;;;375.67;;
16147;SDS011;8179;59.364;18.018;2023-07-22T05:10:25;325.40;;;314.85;;
16147;SDS011;8179;59.364;18.018;2023-07-22T05:12:54;379.13;;;366.63;;
16147;SDS011;8179;59.364;18.018;2023-07-22T05:15:20;446.88;;;430.98;;
16147;SDS011;8179;59.364;18.018;2023-07-22T05:17:47;336.20;;;325.38;;
16147;SDS011;8179;59.364;18.018;2023-07-22T05:20:13;471.08;;;453.25;;
16147;SDS011;8179;59.364;18.018;2023-07-22T05:22:40;413.17;;;398.80;;
16147;SDS011;8179;59.364;18.018;2023-07-22T05:25:08;443.60;;;426.92;;
16147;SDS011;8179;59.364;18.018;2023-07-22T05:27:36;339.52;;;328.20;;
16147;SDS011;8179;59.364;18.018;2023-07-22T05:30:02;415.98;;;401.45;;
16147;SDS011;8179;59.364;18.018;2023-07-22T05:32:29;450.02;;;434.00;;
16147;SDS011;8179;59.364;18.018;2023-07-22T05:34:57;435.25;;;418.52;;
16147;SDS011;8179;59.364;18.018;2023-07-22T05:37:23;446.10;;;429.83;;
16147;SDS011;8179;59.364;18.018;2023-07-22T05:39:50;478.20;;;459.25;;
16147;SDS011;8179;59.364;18.018;2023-07-22T05:42:18;446.88;;;430.55;;
16147;SDS011;8179;59.364;18.018;2023-07-22T05:44:44;466.38;;;448.80;;
16147;SDS011;8179;59.364;18.018;2023-07-22T05:47:11;452.00;;;434.67;;
16147;SDS011;8179;59.364;18.018;2023-07-22T05:49:38;477.05;;;459.02;;
16147;SDS011;8179;59.364;18.018;2023-07-22T05:52:05;433.25;;;416.83;;
16147;SDS011;8179;59.364;18.018;2023-07-22T05:54:31;440.83;;;423.83;;
16147;SDS011;8179;59.364;18.018;2023-07-22T05:56:58;447.52;;;430.73;;
16147;SDS011;8179;59.364;18.018;2023-07-22T05:59:26;425.85;;;410.40;;
16147;SDS011;8179;59.364;18.018;2023-07-22T06:01:52;430.85;;;415.05;;
16147;SDS011;8179;59.364;18.018;2023-07-22T06:04:19;413.55;;;398.65;;
16147;SDS011;8179;59.364;18.018;2023-07-22T06:06:45;420.75;;;405.83;;
16147;SDS011;8179;59.364;18.018;2023-07-22T06:09:12;368.23;;;355.70;;
16147;SDS011;8179;59.364;18.018;2023-07-22T06:11:38;378.75;;;365.45;;
16147;SDS011;8179;59.364;18.018;2023-07-22T06:14:05;501.33;;;481.10;;
16147;SDS011;8179;59.364;18.018;2023-07-22T06:16:33;443.58;;;426.80;;
16147;SDS011;8179;59.364;18.018;2023-07-22T06:18:59;582.22;;;555.80;;
16147;SDS011;8179;59.364;18.018;2023-07-22T06:21:26;551.33;;;528.53;;
16147;SDS011;8179;59.364;18.018;2023-07-22T06:23:52;532.53;;;510.65;;
16147;SDS011;8179;59.364;18.018;2023-07-22T06:26:19;522.45;;;501.02;;
16147;SDS011;8179;59.364;18.018;2023-07-22T06:28:45;422.13;;;406.77;;
16147;SDS011;8179;59.364;18.018;2023-07-22T06:31:12;509.52;;;488.08;;
16147;SDS011;8179;59.364;18.018;2023-07-22T06:33:40;399.45;;;385.40;;
16147;SDS011;8179;59.364;18.018;2023-07-22T06:36:06;480.73;;;462.17;;
16147;SDS011;8179;59.364;18.018;2023-07-22T06:38:33;415.60;;;399.42;;
16147;SDS011;8179;59.364;18.018;2023-07-22T06:40:59;643.83;;;614.28;;
16147;SDS011;8179;59.364;18.018;2023-07-22T06:43:26;524.47;;;502.05;;
16147;SDS011;8179;59.364;18.018;2023-07-22T06:45:52;572.13;;;547.65;;
16147;SDS011;8179;59.364;18.018;2023-07-22T06:48:19;621.22;;;592.88;;
16147;SDS011;8179;59.364;18.018;2023-07-22T06:50:50;598.63;;;571.67;;
16147;SDS011;8179;59.364;18.018;2023-07-22T06:53:16;514.22;;;493.67;;
16147;SDS011;8179;59.364;18.018;2023-07-22T06:55:48;511.42;;;491.38;;
16147;SDS011;8179;59.364;18.018;2023-07-22T06:58:14;493.27;;;474.17;;
16147;SDS011;8179;59.364;18.018;2023-07-22T07:00:41;431.08;;;415.58;;
16147;SDS011;8179;59.364;18.018;2023-07-22T07:03:07;552.03;;;529.13;;
16147;SDS011;8179;59.364;18.018;2023-07-22T07:05:34;533.42;;;512.08;;
16147;SDS011;8179;59.364;18.018;2023-07-22T07:08:02;550.50;;;527.55;;
16147;SDS011;8179;59.364;18.018;2023-07-22T07:10:29;460.45;;;443.13;;
16147;SDS011;8179;59.364;18.018;2023-07-22T07:12:55;599.53;;;573.30;;
16147;SDS011;8179;59.364;18.018;2023-07-22T07:15:23;623.47;;;594.95;;
16147;SDS011;8179;59.364;18.018;2023-07-22T07:17:50;648.72;;;618.10;;
16147;SDS011;8179;59.364;18.018;2023-07-22T07:20:16;668.33;;;637.03;;
16147;SDS011;8179;59.364;18.018;2023-07-22T07:22:43;654.28;;;623.20;;
16147;SDS011;8179;59.364;18.018;2023-07-22T07:25:11;680.60;;;647.63;;
16147;SDS011;8179;59.364;18.018;2023-07-22T07:27:37;817.10;;;773.03;;
16147;SDS011;8179;59.364;18.018;2023-07-22T07:30:04;761.95;;;722.53;;
16147;SDS011;8179;59.364;18.018;2023-07-22T07:32:33;710.75;;;674.90;;
16147;SDS011;8179;59.364;18.018;2023-07-22T07:34:59;736.97;;;699.58;;
16147;SDS011;8179;59.364;18.018;2023-07-22T07:37:26;851.42;;;804.88;;
16147;SDS011;8179;59.364;18.018;2023-07-22T07:39:52;806.47;;;762.28;;
16147;SDS011;8179;59.364;18.018;2023-07-22T07:42:20;749.58;;;711.70;;
16147;SDS011;8179;59.364;18.018;2023-07-22T07:44:46;1420.35;;;897.15;;
16147;SDS011;8179;59.364;18.018;2023-07-22T07:47:13;814.08;;;771.13;;
16147;SDS011;8179;59.364;18.018;2023-07-22T07:49:39;1724.07;;;961.40;;
16147;SDS011;8179;59.364;18.018;2023-07-22T07:52:06;961.42;;;905.17;;
16147;SDS011;8179;59.364;18.018;2023-07-22T07:54:33;933.88;;;879.08;;
16147;SDS011;8179;59.364;18.018;2023-07-22T07:56:59;841.45;;;795.90;;
16147;SDS011;8179;59.364;18.018;2023-07-22T07:59:27;799.90;;;757.95;;
16147;SDS011;8179;59.364;18.018;2023-07-22T08:01:54;896.70;;;846.05;;
16147;SDS011;8179;59.364;18.018;2023-07-22T08:04:20;801.78;;;759.20;;
16147;SDS011;8179;59.364;18.018;2023-07-22T08:06:47;1449.05;;;923.97;;
16147;SDS011;8179;59.364;18.018;2023-07-22T08:09:13;735.55;;;699.28;;
16147;SDS011;8179;59.364;18.018;2023-07-22T08:11:44;794.22;;;752.85;;
16147;SDS011;8179;59.364;18.018;2023-07-22T08:14:10;844.38;;;793.25;;
16147;SDS011;8179;59.364;18.018;2023-07-22T08:16:38;774.42;;;734.78;;
16147;SDS011;8179;59.364;18.018;2023-07-22T08:19:04;833.90;;;789.35;;
16147;SDS011;8179;59.364;18.018;2023-07-22T08:21:31;819.15;;;775.80;;
16147;SDS011;8179;59.364;18.018;2023-07-22T08:23:57;1131.15;;;847.15;;
16147;SDS011;8179;59.364;18.018;2023-07-22T08:26:24;753.67;;;716.22;;
16147;SDS011;8179;59.364;18.018;2023-07-22T08:28:50;699.03;;;665.17;;
16147;SDS011;8179;59.364;18.018;2023-07-22T08:31:17;743.95;;;706.22;;
16147;SDS011;8179;59.364;18.018;2023-07-22T08:33:45;749.38;;;712.83;;
16147;SDS011;8179;59.364;18.018;2023-07-22T08:36:11;720.03;;;685.20;;
16147;SDS011;8179;59.364;18.018;2023-07-22T08:38:38;786.22;;;744.95;;
16147;SDS011;8179;59.364;18.018;2023-07-22T08:41:05;766.78;;;728.13;;
16147;SDS011;8179;59.364;18.018;2023-07-22T08:43:31;754.20;;;715.95;;
16147;SDS011;8179;59.364;18.018;2023-07-22T08:46:01;762.50;;;724.60;;
16147;SDS011;8179;59.364;18.018;2023-07-22T08:48:29;624.83;;;597.22;;
16147;SDS011;8179;59.364;18.018;2023-07-22T08:51:02;681.42;;;649.78;;
16147;SDS011;8179;59.364;18.018;2023-07-22T08:53:29;761.80;;;723.53;;
16147;SDS011;8179;59.364;18.018;2023-07-22T08:55:55;597.80;;;572.50;;
16147;SDS011;8179;59.364;18.018;2023-07-22T08:58:22;647.25;;;617.63;;
16147;SDS011;8179;59.364;18.018;2023-07-22T09:00:50;646.80;;;618.05;;
16147;SDS011;8179;59.364;18.018;2023-07-22T09:03:18;673.72;;;641.17;;
16147;SDS011;8179;59.364;18.018;2023-07-22T09:05:44;735.72;;;698.47;;
16147;SDS011;8179;59.364;18.018;2023-07-22T09:08:13;712.08;;;677.55;;
16147;SDS011;8179;59.364;18.018;2023-07-22T09:10:39;734.20;;;698.88;;
16147;SDS011;8179;59.364;18.018;2023-07-22T09:13:06;749.67;;;712.92;;
16147;SDS011;8179;59.364;18.018;2023-07-22T09:15:34;744.83;;;708.03;;
16147;SDS011;8179;59.364;18.018;2023-07-22T09:18:01;679.72;;;648.65;;
16147;SDS011;8179;59.364;18.018;2023-07-22T09:20:28;772.25;;;733.33;;
16147;SDS011;8179;59.364;18.018;2023-07-22T09:22:54;751.65;;;713.95;;
16147;SDS011;8179;59.364;18.018;2023-07-22T09:25:23;691.25;;;657.90;;
16147;SDS011;8179;59.364;18.018;2023-07-22T09:27:50;617.45;;;590.78;;
16147;SDS011;8179;59.364;18.018;2023-07-22T09:30:21;677.97;;;646.28;;
16147;SDS011;8179;59.364;18.018;2023-07-22T09:32:48;631.50;;;604.05;;
16147;SDS011;8179;59.364;18.018;2023-07-22T09:35:14;656.72;;;627.35;;
16147;SDS011;8179;59.364;18.018;2023-07-22T09:37:41;704.25;;;670.55;;
16147;SDS011;8179;59.364;18.018;2023-07-22T09:40:14;647.55;;;618.15;;
16147;SDS011;8179;59.364;18.018;2023-07-22T09:42:44;577.75;;;553.50;;
16147;SDS011;8179;59.364;18.018;2023-07-22T09:45:10;564.92;;;542.20;;
16147;SDS011;8179;59.364;18.018;2023-07-22T09:47:39;468.23;;;451.48;;
16147;SDS011;8179;59.364;18.018;2023-07-22T09:50:06;540.03;;;516.47;;
16147;SDS011;8179;59.364;18.018;2023-07-22T09:52:32;531.08;;;509.58;;
16147;SDS011;8179;59.364;18.018;2023-07-22T09:54:59;632.53;;;604.72;;
16147;SDS011;8179;59.364;18.018;2023-07-22T09:57:26;568.97;;;545.28;;
16147;SDS011;8179;59.364;18.018;2023-07-22T09:59:54;535.67;;;514.85;;
16147;SDS011;8179;59.364;18.018;2023-07-22T10:02:21;472.05;;;454.52;;
16147;SDS011;8179;59.364;18.018;2023-07-22T10:04:48;538.00;;;515.42;;
16147;SDS011;8179;59.364;18.018;2023-07-22T10:07:17;586.30;;;561.78;;
16147;SDS011;8179;59.364;18.018;2023-07-22T10:09:44;665.00;;;634.28;;
16147;SDS011;8179;59.364;18.018;2023-07-22T10:12:12;547.22;;;524.70;;
16147;SDS011;8179;59.364;18.018;2023-07-22T10:14:40;431.83;;;416.40;;
16147;SDS011;8179;59.364;18.018;2023-07-22T10:17:08;425.85;;;411.17;;
16147;SDS011;8179;59.364;18.018;2023-07-22T10:19:36;515.65;;;494.05;;
16147;SDS011;8179;59.364;18.018;2023-07-22T10:22:03;565.35;;;542.17;;
16147;SDS011;8179;59.364;18.018;2023-07-22T10:24:29;551.90;;;529.33;;
16147;SDS011;8179;59.364;18.018;2023-07-22T10:26:57;462.45;;;443.98;;
16147;SDS011;8179;59.364;18.018;2023-07-22T10:29:23;448.20;;;431.02;;
16147;SDS011;8179;59.364;18.018;2023-07-22T10:31:52;445.17;;;428.60;;
16147;SDS011;8179;59.364;18.018;2023-07-22T10:34:21;509.25;;;489.52;;
16147;SDS011;8179;59.364;18.018;2023-07-22T10:36:48;392.23;;;378.92;;
16147;SDS011;8179;59.364;18.018;2023-07-22T10:39:24;469.48;;;451.88;;
16147;SDS011;8179;59.364;18.018;2023-07-22T10:41:50;440.02;;;424.58;;
16147;SDS011;8179;59.364;18.018;2023-07-22T10:44:25;419.75;;;405.20;;
16147;SDS011;8179;59.364;18.018;2023-07-22T10:46:56;431.02;;;416.20;;
16147;SDS011;8179;59.364;18.018;2023-07-22T10:49:27;453.73;;;436.98;;
16147;SDS011;8179;59.364;18.018;2023-07-22T10:52:09;517.20;;;496.85;;
16147;SDS011;8179;59.364;18.018;2023-07-22T10:54:36;506.27;;;486.95;;
16147;SDS011;8179;59.364;18.018;2023-07-22T10:57:03;390.92;;;378.23;;
16147;SDS011;8179;59.364;18.018;2023-07-22T10:59:32;453.42;;;437.10;;
16147;SDS011;8179;59.364;18.018;2023-07-22T11:01:59;480.75;;;462.80;;
16147;SDS011;8179;59.364;18.018;2023-07-22T11:04:27;527.22;;;505.52;;
16147;SDS011;8179;59.364;18.018;2023-07-22T11:07:05;499.33;;;480.30;;
16147;SDS011;8179;59.364;18.018;2023-07-22T11:09:33;414.08;;;399.85;;
16147;SDS011;8179;59.364;18.018;2023-07-22T11:11:59;492.08;;;473.27;;
16147;SDS011;8179;59.364;18.018;2023-07-22T11:14:26;412.67;;;398.55;;
16147;SDS011;8179;59.364;18.018;2023-07-22T11:16:53;491.67;;;473.35;;
16147;SDS011;8179;59.364;18.018;2023-07-22T11:19:21;535.17;;;514.60;;
16147;SDS011;8179;59.364;18.018;2023-07-22T11:21:50;428.20;;;413.05;;
16147;SDS011;8179;59.364;18.018;2023-07-22T11:24:17;490.58;;;470.85;;
16147;SDS011;8179;59.364;18.018;2023-07-22T11:26:44;416.48;;;402.17;;
16147;SDS011;8179;59.364;18.018;2023-07-22T11:29:11;397.17;;;383.88;;
16147;SDS011;8179;59.364;18.018;2023-07-22T11:31:38;449.48;;;433.35;;
16147;SDS011;8179;59.364;18.018;2023-07-22T11:34:07;371.23;;;358.98;;
16147;SDS011;8179;59.364;18.018;2023-07-22T11:36:34;384.40;;;371.67;;
16147;SDS011;8179;59.364;18.018;2023-07-22T11:39:02;476.42;;;458.23;;
16147;SDS011;8179;59.364;18.018;2023-07-22T11:41:30;399.15;;;385.10;;
16147;SDS011;8179;59.364;18.018;2023-07-22T11:43:57;374.30;;;362.15;;
16147;SDS011;8179;59.364;18.018;2023-07-22T11:46:23;312.92;;;303.15;;
16147;SDS011;8179;59.364;18.018;2023-07-22T11:48:50;428.40;;;413.77;;
16147;SDS011;8179;59.364;18.018;2023-07-22T11:51:17;424.75;;;409.77;;
16147;SDS011;8179;59.364;18.018;2023-07-22T11:53:46;452.05;;;435.98;;
16147;SDS011;8179;59.364;18.018;2023-07-22T11:56:14;441.35;;;423.52;;
16147;SDS011;8179;59.364;18.018;2023-07-22T11:58:43;372.13;;;359.90;;
16147;SDS011;8179;59.364;18.018;2023-07-22T12:01:14;334.33;;;323.95;;
16147;SDS011;8179;59.364;18.018;2023-07-22T12:03:41;387.10;;;374.40;;
16147;SDS011;8179;59.364;18.018;2023-07-22T12:06:08;364.08;;;352.42;;
16147;SDS011;8179;59.364;18.018;2023-07-22T12:08:35;375.77;;;363.65;;
16147;SDS011;8179;59.364;18.018;2023-07-22T12:11:02;412.17;;;397.88;;
16147;SDS011;8179;59.364;18.018;2023-07-22T12:13:30;361.67;;;350.02;;
16147;SDS011;8179;59.364;18.018;2023-07-22T12:16:01;369.80;;;357.73;;
16147;SDS011;8179;59.364;18.018;2023-07-22T12:18:40;358.88;;;347.33;;
16147;SDS011;8179;59.364;18.018;2023-07-22T12:21:07;390.17;;;377.23;;
16147;SDS011;8179;59.364;18.018;2023-07-22T12:23:34;388.90;;;375.90;;
16147;SDS011;8179;59.364;18.018;2023-07-22T12:26:00;361.48;;;349.95;;
16147;SDS011;8179;59.364;18.018;2023-07-22T12:28:27;398.08;;;384.48;;
16147;SDS011;8179;59.364;18.018;2023-07-22T12:30:55;399.65;;;385.85;;
16147;SDS011;8179;59.364;18.018;2023-07-22T12:33:22;423.27;;;408.63;;
16147;SDS011;8179;59.364;18.018;2023-07-22T12:35:49;384.63;;;371.85;;
16147;SDS011;8179;59.364;18.018;2023-07-22T12:38:15;382.10;;;369.27;;
16147;SDS011;8179;59.364;18.018;2023-07-22T12:40:42;372.00;;;359.65;;
16147;SDS011;8179;59.364;18.018;2023-07-22T12:43:09;379.50;;;366.95;;
16147;SDS011;8179;59.364;18.018;2023-07-22T12:45:35;376.70;;;364.52;;
16147;SDS011;8179;59.364;18.018;2023-07-22T12:48:03;368.45;;;356.67;;
16147;SDS011;8179;59.364;18.018;2023-07-22T12:50:30;369.08;;;357.23;;
16147;SDS011;8179;59.364;18.018;2023-07-22T12:52:57;376.27;;;364.05;;
16147;SDS011;8179;59.364;18.018;2023-07-22T12:55:24;448.35;;;432.30;;
16147;SDS011;8179;59.364;18.018;2023-07-22T12:57:50;477.63;;;460.38;;
16147;SDS011;8179;59.364;18.018;2023-07-22T13:00:17;458.58;;;442.10;;
16147;SDS011;8179;59.364;18.018;2023-07-22T13:02:43;384.70;;;372.15;;
16147;SDS011;8179;59.364;18.018;2023-07-22T13:05:11;430.10;;;415.25;;
16147;SDS011;8179;59.364;18.018;2023-07-22T13:07:38;389.13;;;376.08;;
16147;SDS011;8179;59.364;18.018;2023-07-22T13:13:08;442.00;;;423.70;;
16147;SDS011;8179;59.364;18.018;2023-07-22T13:15:35;400.33;;;387.02;;
16147;SDS011;8179;59.364;18.018;2023-07-22T13:18:02;427.38;;;412.25;;
16147;SDS011;8179;59.364;18.018;2023-07-22T13:20:30;412.88;;;398.85;;
16147;SDS011;8179;59.364;18.018;2023-07-22T13:22:56;418.27;;;404.13;;
16147;SDS011;8179;59.364;18.018;2023-07-22T13:25:23;378.30;;;365.02;;
16147;SDS011;8179;59.364;18.018;2023-07-22T13:27:50;495.02;;;476.25;;
16147;SDS011;8179;59.364;18.018;2023-07-22T13:30:17;451.25;;;435.10;;
16147;SDS011;8179;59.364;18.018;2023-07-22T13:32:44;559.65;;;535.63;;
16147;SDS011;8179;59.364;18.018;2023-07-22T13:35:11;488.90;;;467.33;;
16147;SDS011;8179;59.364;18.018;2023-07-22T13:37:39;531.53;;;510.55;;
16147;SDS011;8179;59.364;18.018;2023-07-22T13:40:06;490.77;;;472.48;;
16147;SDS011;8179;59.364;18.018;2023-07-22T13:42:35;559.33;;;535.22;;
16147;SDS011;8179;59.364;18.018;2023-07-22T13:45:03;515.83;;;495.15;;
16147;SDS011;8179;59.364;18.018;2023-07-22T13:47:29;575.63;;;551.08;;
16147;SDS011;8179;59.364;18.018;2023-07-22T13:49:56;552.22;;;529.25;;
16147;SDS011;8179;59.364;18.018;2023-07-22T13:52:22;559.83;;;535.50;;
16147;SDS011;8179;59.364;18.018;2023-07-22T13:54:50;548.28;;;524.15;;
16147;SDS011;8179;59.364;18.018;2023-07-22T13:57:17;505.42;;;486.10;;
16147;SDS011;8179;59.364;18.018;2023-07-22T13:59:44;613.22;;;587.13;;